Time;durP1;ratioP1;P1;durP2;ratioP2;P2;SDS_P1;SDS_P2;PMS_P1;PMS_P2;Temp;Humidity;BMP_temperature;BMP_pressure;BME280_temperature;BME280_humidity;BME280_pressure;Samples;Min_cycle;Max_cycle;Signal;HPM_P1;HPM_P2
2023/03/10 00:01:16;;;;;;;0.70;0.30;;;;;;;17.01;54.45;98552.19;4971700;28;20030;-70
2023/03/10 00:03:42;;;;;;;0.70;0.25;;;;;;;17.08;54.76;98576.44;4956221;28;20030;-69
2023/03/10 00:06:09;;;;;;;1.17;0.20;;;;;;;17.10;54.09;98577.03;4956271;28;20069;-69
2023/03/10 00:08:34;;;;;;;2.45;0.40;;;;;;;17.13;54.24;98576.59;4956311;28;20045;-69
2023/03/10 00:11:00;;;;;;;0.47;0.38;;;;;;;17.11;54.44;98579.53;4973535;28;20034;-69
2023/03/10 00:13:25;;;;;;;1.75;0.50;;;;;;;17.11;54.43;98578.72;4956261;28;20047;-69
2023/03/10 00:15:51;;;;;;;0.30;0.20;;;;;;;17.07;54.03;98558.56;4972935;28;20147;-69
2023/03/10 00:18:16;;;;;;;1.75;0.32;;;;;;;17.06;54.24;98559.59;4972442;28;20035;-70
2023/03/10 00:20:42;;;;;;;1.65;0.40;;;;;;;17.13;53.60;98577.44;4974365;28;20147;-69
2023/03/10 00:23:07;;;;;;;0.20;0.20;;;;;;;17.13;53.77;98572.03;4977478;28;20039;-69
2023/03/10 00:25:32;;;;;;;1.38;0.50;;;;;;;17.16;54.67;98576.16;4975657;28;20130;-69
2023/03/10 00:27:58;;;;;;;1.70;0.60;;;;;;;17.18;54.37;98571.31;4976567;28;20493;-69
2023/03/10 00:30:23;;;;;;;0.57;0.40;;;;;;;17.15;54.30;98569.06;4975852;28;20034;-69
2023/03/10 00:32:49;;;;;;;1.00;0.38;;;;;;;17.14;54.33;98570.16;4943976;28;20038;-69
2023/03/10 00:35:15;;;;;;;1.02;0.40;;;;;;;17.20;54.12;98578.16;4959792;28;20039;-69
2023/03/10 00:37:40;;;;;;;4.03;0.40;;;;;;;17.23;53.94;98576.88;4976156;28;20498;-69
2023/03/10 00:40:13;;;;;;;0.45;0.45;;;;;;;17.18;54.53;98574.88;4976307;28;20039;-69
2023/03/10 00:42:39;;;;;;;2.17;0.93;;;;;;;17.16;53.70;98566.16;4960989;28;20074;-69
2023/03/10 00:45:05;;;;;;;3.47;0.57;;;;;;;17.16;54.48;98570.75;4959793;28;20069;-67
2023/03/10 00:47:30;;;;;;;2.00;0.63;;;;;;;17.11;53.57;98570.59;4958850;28;20371;-67
2023/03/10 00:49:55;;;;;;;7.53;1.00;;;;;;;17.11;54.17;98578.72;4942865;28;20130;-67
2023/03/10 00:52:21;;;;;;;2.53;0.50;;;;;;;17.01;54.01;98578.41;4975131;28;20042;-69
2023/03/10 00:54:46;;;;;;;2.05;0.43;;;;;;;16.85;54.89;98560.91;4975401;28;20034;-65
2023/03/10 00:57:12;;;;;;;3.10;0.50;;;;;;;16.79;54.29;98559.91;4958729;28;20046;-68
2023/03/10 00:59:37;;;;;;;2.80;0.52;;;;;;;16.77;54.82;98570.13;4958795;28;20035;-68
2023/03/10 01:02:03;;;;;;;0.20;0.17;;;;;;;16.75;54.30;98576.81;4976197;28;20034;-68
2023/03/10 01:04:28;;;;;;;0.20;0.10;;;;;;;16.65;54.10;98562.97;4976287;28;20037;-68
2023/03/10 01:06:54;;;;;;;1.85;0.45;;;;;;;16.66;54.62;98562.78;4959590;28;20031;-69
2023/03/10 01:09:19;;;;;;;0.45;0.25;;;;;;;16.61;54.49;98562.59;4959002;28;20066;-68
2023/03/10 01:11:45;;;;;;;0.30;0.15;;;;;;;16.67;54.68;98566.28;4958600;28;20089;-68
2023/03/10 01:14:12;;;;;;;0.90;0.50;;;;;;;16.65;54.31;98562.97;4974851;28;20089;-67
2023/03/10 01:16:38;;;;;;;0.85;0.47;;;;;;;16.61;54.46;98562.59;4974434;28;20033;-66
2023/03/10 01:19:03;;;;;;;0.20;0.10;;;;;;;16.57;54.64;98566.81;4974442;28;20030;-67
2023/03/10 01:21:31;;;;;;;0.65;0.28;;;;;;;16.56;55.08;98567.84;4991380;28;20038;-66
2023/03/10 01:23:56;;;;;;;1.63;0.22;;;;;;;16.49;55.25;98558.13;4958609;28;20046;-68
2023/03/10 01:26:22;;;;;;;0.70;0.17;;;;;;;16.48;55.65;98554.59;4958539;28;20035;-69
2023/03/10 01:28:47;;;;;;;2.72;0.45;;;;;;;16.55;54.61;98566.22;4942937;28;20035;-69
2023/03/10 01:31:13;;;;;;;2.15;0.38;;;;;;;16.54;55.47;98567.25;4957975;28;20042;-68
2023/03/10 01:33:39;;;;;;;0.55;0.17;;;;;;;16.52;54.77;98563.09;4958783;28;20033;-67
2023/03/10 01:36:09;;;;;;;0.90;0.30;;;;;;;16.52;55.35;98574.72;4958183;28;20050;-68
2023/03/10 01:38:36;;;;;;;1.30;0.20;;;;;;;16.48;55.35;98556.47;4958025;28;20043;-68
2023/03/10 01:41:01;;;;;;;2.67;0.40;;;;;;;16.45;55.48;98552.31;4958456;28;20036;-68
2023/03/10 01:43:28;;;;;;;0.20;0.17;;;;;;;16.38;55.42;98529.13;4974406;28;20582;-69
2023/03/10 01:46:00;;;;;;;0.40;0.30;;;;;;;16.48;54.95;98541.06;4974955;28;20034;-69
2023/03/10 01:48:27;;;;;;;1.15;0.28;;;;;;;16.45;55.37;98530.72;4975804;28;20133;-68
2023/03/10 01:50:54;;;;;;;0.57;0.20;;;;;;;16.50;54.33;98538.97;4955127;28;20031;-69
2023/03/10 01:53:20;;;;;;;1.15;0.17;;;;;;;16.54;54.33;98534.81;4938898;29;20129;-69
2023/03/10 01:55:52;;;;;;;0.20;0.20;;;;;;;16.56;54.93;98538.13;4939048;29;20130;-69
2023/03/10 01:58:21;;;;;;;0.40;0.40;;;;;;;16.51;55.22;98524.41;4957228;28;20502;-69
2023/03/10 02:00:46;;;;;;;0.25;0.25;;;;;;;16.57;53.72;98523.56;4958748;28;20509;-69
2023/03/10 02:03:16;;;;;;;0.90;0.20;;;;;;;16.65;54.77;98528.66;4974118;28;20031;-68
2023/03/10 02:05:47;;;;;;;1.40;0.30;;;;;;;16.60;54.97;98515.00;4974353;28;20050;-69
2023/03/10 02:08:14;;;;;;;1.15;0.32;;;;;;;16.62;54.55;98515.59;4974459;28;20035;-69
2023/03/10 02:10:39;;;;;;;1.08;0.30;;;;;;;16.56;55.05;98516.50;4942015;28;20380;-69
2023/03/10 02:13:05;;;;;;;2.67;0.88;;;;;;;16.67;53.89;98523.03;4957975;28;20026;-69
2023/03/10 02:15:32;;;;;;;1.95;0.50;;;;;;;16.65;54.39;98528.66;4958415;28;20031;-69
2023/03/10 02:17:58;;;;;;;0.20;0.20;;;;;;;16.65;53.86;98525.13;4957672;28;20046;-69
2023/03/10 02:20:32;;;;;;;0.38;0.30;;;;;;;16.63;54.50;98522.66;4957823;28;20039;-69
2023/03/10 02:22:57;;;;;;;3.20;0.30;;;;;;;16.57;53.91;98518.16;4975111;28;20138;-69
2023/03/10 02:25:34;;;;;;;1.60;0.40;;;;;;;16.54;55.00;98513.19;4973812;28;20498;-69
2023/03/10 02:28:00;;;;;;;0.40;0.30;;;;;;;16.51;53.78;98508.19;4975369;28;20119;-69
2023/03/10 02:30:31;;;;;;;2.10;0.40;;;;;;;16.48;54.34;98505.94;4974225;28;20115;-69
2023/03/10 02:33:01;;;;;;;0.63;0.25;;;;;;;16.47;54.22;98493.47;4973686;28;20043;-69
2023/03/10 02:35:27;;;;;;;0.90;0.85;;;;;;;16.47;54.20;98495.38;4973453;28;20101;-69
2023/03/10 02:37:53;;;;;;;1.02;0.50;;;;;;;16.47;54.22;98501.56;4957490;28;20497;-69
2023/03/10 02:40:22;;;;;;;0.88;0.55;;;;;;;16.45;54.26;98497.44;4973981;28;20429;-69
2023/03/10 02:42:48;;;;;;;2.78;0.55;;;;;;;16.43;54.09;98484.19;4990153;28;20053;-69
2023/03/10 02:45:13;;;;;;;3.08;0.43;;;;;;;16.43;53.97;98486.88;4942701;28;20038;-69
2023/03/10 02:47:39;;;;;;;1.58;0.60;;;;;;;16.37;54.32;98482.38;4974883;28;20062;-69
2023/03/10 02:50:07;;;;;;;4.00;0.60;;;;;;;16.45;54.26;98482.06;4942318;28;20411;-69
2023/03/10 02:52:57;;;;;;;4.85;1.02;;;;;;;16.50;54.07;98479.50;4957132;28;20092;-69
2023/03/10 02:55:22;;;;;;;3.75;0.85;;;;;;;16.52;54.33;98477.44;4957310;28;20035;-69
2023/03/10 02:57:48;;;;;;;3.25;0.60;;;;;;;16.44;54.45;98453.41;4957600;28;20030;-69
2023/03/10 03:00:14;;;;;;;6.80;0.50;;;;;;;16.58;55.20;98481.94;4972975;28;20080;-69
2023/03/10 03:02:39;;;;;;;6.32;0.70;;;;;;;16.60;54.16;98479.88;4974537;28;20057;-69
2023/03/10 03:05:05;;;;;;;2.72;0.55;;;;;;;16.56;53.51;98462.44;4973247;28;20511;-68
2023/03/10 03:07:31;;;;;;;2.67;0.70;;;;;;;16.59;54.62;98461.97;4957162;28;20065;-69
2023/03/10 03:09:56;;;;;;;1.80;0.43;;;;;;;16.64;54.87;98478.34;4957406;28;20501;-68
2023/03/10 03:12:21;;;;;;;3.88;0.60;;;;;;;16.67;54.43;98464.38;4956612;28;20041;-68
2023/03/10 03:14:47;;;;;;;3.42;0.38;;;;;;;16.68;54.60;98460.63;4972936;28;20035;-68
2023/03/10 03:17:13;;;;;;;2.20;0.68;;;;;;;16.63;53.70;98459.66;4956623;28;20407;-69
2023/03/10 03:19:38;;;;;;;2.13;0.32;;;;;;;16.68;53.73;98471.44;4972459;28;20069;-69
2023/03/10 03:22:04;;;;;;;11.25;0.63;;;;;;;16.67;54.11;98461.69;4972650;28;20046;-69
2023/03/10 03:24:30;;;;;;;1.70;0.30;;;;;;;16.68;53.14;98463.34;4957009;28;20399;-69
2023/03/10 03:26:56;;;;;;;3.08;0.35;;;;;;;16.66;54.21;98470.88;4972679;28;20039;-68
2023/03/10 03:29:21;;;;;;;2.40;0.43;;;;;;;16.69;54.35;98464.19;4940238;28;20525;-68
2023/03/10 03:31:47;;;;;;;1.08;0.40;;;;;;;16.69;53.76;98467.72;4956286;28;20039;-68
2023/03/10 03:34:12;;;;;;;3.60;0.57;;;;;;;16.69;53.14;98456.91;4940398;28;20035;-68
2023/03/10 03:36:38;;;;;;;2.95;0.68;;;;;;;16.59;53.93;98440.38;4972832;28;20486;-68
2023/03/10 03:39:05;;;;;;;2.72;0.50;;;;;;;16.73;53.90;98457.25;4972284;28;20031;-68
2023/03/10 03:41:32;;;;;;;3.75;0.68;;;;;;;16.74;54.09;98458.91;4973394;28;20517;-68
2023/03/10 03:43:57;;;;;;;3.22;0.68;;;;;;;16.73;53.32;98447.25;4940159;28;20129;-68
2023/03/10 03:46:22;;;;;;;2.55;0.30;;;;;;;16.71;52.86;98446.66;4972305;28;20516;-68
2023/03/10 03:48:48;;;;;;;4.32;0.70;;;;;;;16.65;53.76;98444.88;4974287;28;20029;-68
2023/03/10 03:51:13;;;;;;;3.40;0.85;;;;;;;16.69;54.29;98451.50;4972102;28;20118;-68
2023/03/10 03:53:39;;;;;;;5.88;0.60;;;;;;;16.68;53.68;98449.00;4956808;28;20043;-68
2023/03/10 03:56:05;;;;;;;3.65;0.63;;;;;;;16.66;52.56;98451.94;4979699;28;20126;-68
2023/03/10 03:58:30;;;;;;;8.82;0.80;;;;;;;16.65;52.84;98450.28;4978663;28;20038;-68
2023/03/10 04:00:55;;;;;;;3.20;0.73;;;;;;;16.56;53.19;98438.09;4980258;28;20023;-68
2023/03/10 04:03:21;;;;;;;1.58;0.60;;;;;;;16.55;53.41;98433.78;4978959;28;20030;-69
2023/03/10 04:05:46;;;;;;;3.08;0.47;;;;;;;16.61;53.63;98443.66;4978828;28;20055;-69
2023/03/10 04:08:12;;;;;;;4.15;0.63;;;;;;;16.53;53.80;98425.03;4978723;28;20031;-68
2023/03/10 04:10:38;;;;;;;4.10;0.88;;;;;;;16.59;52.95;98434.97;4978577;28;20033;-69
2023/03/10 04:13:03;;;;;;;5.00;0.70;;;;;;;16.59;53.08;98437.66;4962143;28;20034;-68
2023/03/10 04:15:29;;;;;;;5.00;0.75;;;;;;;16.59;53.48;98434.13;4978926;28;20031;-68
2023/03/10 04:17:56;;;;;;;7.07;0.63;;;;;;;16.57;52.57;98425.44;4978380;28;20507;-68
2023/03/10 04:20:23;;;;;;;2.55;0.95;;;;;;;16.57;53.45;98437.06;4978476;28;20058;-68
2023/03/10 04:22:49;;;;;;;4.70;0.50;;;;;;;16.52;53.14;98407.16;4965559;28;20054;-69
2023/03/10 04:25:14;;;;;;;10.18;1.00;;;;;;;16.60;52.42;98441.19;4962193;28;20065;-68
2023/03/10 04:27:40;;;;;;;2.90;1.00;;;;;;;16.59;53.14;98426.84;4978894;28;20030;-68
2023/03/10 04:30:06;;;;;;;3.17;0.68;;;;;;;16.57;52.92;98415.44;4946032;28;20141;-68
2023/03/10 04:32:32;;;;;;;4.78;0.50;;;;;;;16.54;53.50;98421.31;4962086;28;20077;-68
2023/03/10 04:34:58;;;;;;;2.22;0.88;;;;;;;16.54;53.50;98415.91;4978088;28;20443;-68
2023/03/10 04:37:25;;;;;;;3.05;0.68;;;;;;;16.61;53.05;98422.03;4962511;28;20042;-69
2023/03/10 04:39:50;;;;;;;7.68;1.30;;;;;;;16.55;53.36;98412.16;4962533;28;20035;-68
2023/03/10 04:42:16;;;;;;;7.93;1.00;;;;;;;16.64;52.46;98420.75;4962066;28;20113;-68
2023/03/10 04:44:41;;;;;;;2.17;0.70;;;;;;;16.59;53.43;98407.94;4962092;28;20073;-68
2023/03/10 04:47:07;;;;;;;5.97;1.08;;;;;;;16.56;52.36;98402.16;4946102;28;20043;-69
2023/03/10 04:49:32;;;;;;;7.13;0.70;;;;;;;16.60;53.40;98409.59;4962105;28;20089;-69
2023/03/10 04:51:57;;;;;;;6.15;0.80;;;;;;;16.66;52.84;98418.66;4978883;28;20395;-68
2023/03/10 04:54:23;;;;;;;8.85;1.23;;;;;;;16.56;53.19;98407.53;4979546;28;20066;-68
2023/03/10 04:56:48;;;;;;;5.35;1.02;;;;;;;16.62;52.42;98428.28;4962348;28;20046;-68
2023/03/10 04:59:14;;;;;;;5.25;0.70;;;;;;;16.58;52.93;98422.47;4977996;28;20089;-68
2023/03/10 05:01:39;;;;;;;4.38;1.30;;;;;;;16.57;52.86;98430.84;4979235;28;20106;-68
2023/03/10 05:04:05;;;;;;;6.55;0.88;;;;;;;16.55;53.28;98422.97;4962156;28;20034;-68
2023/03/10 05:06:30;;;;;;;10.35;0.93;;;;;;;16.54;52.91;98420.47;4959872;28;20610;-69
2023/03/10 05:08:56;;;;;;;5.15;0.95;;;;;;;16.49;53.27;98402.22;4976434;28;20042;-69
2023/03/10 05:11:22;;;;;;;7.28;0.73;;;;;;;16.56;54.08;98408.38;4959105;28;20070;-69
2023/03/10 05:13:49;;;;;;;9.38;1.00;;;;;;;16.49;53.35;98402.22;4975003;28;20039;-68
2023/03/10 05:16:16;;;;;;;9.07;1.35;;;;;;;16.49;53.35;98401.38;4959163;28;20394;-69
2023/03/10 05:18:42;;;;;;;9.73;1.05;;;;;;;16.53;53.32;98398.03;4975405;28;20050;-69
2023/03/10 05:21:08;;;;;;;2.45;0.73;;;;;;;16.61;52.30;98411.22;4942928;28;20379;-68
2023/03/10 05:23:33;;;;;;;8.70;1.27;;;;;;;16.63;54.00;98406.44;4974888;28;20070;-68
2023/03/10 05:26:04;;;;;;;1.35;0.80;;;;;;;16.61;53.14;98405.81;4974872;28;20038;-69
2023/03/10 05:28:30;;;;;;;7.70;1.13;;;;;;;16.61;53.35;98411.22;4974900;28;20042;-69
2023/03/10 05:30:55;;;;;;;9.15;1.55;;;;;;;16.53;52.84;98391.75;4959242;28;20038;-69
2023/03/10 05:33:21;;;;;;;6.50;1.73;;;;;;;16.62;52.43;98407.47;4958337;28;20034;-69
2023/03/10 05:35:46;;;;;;;1.70;0.68;;;;;;;16.63;53.32;98414.53;4975787;28;20387;-69
2023/03/10 05:38:12;;;;;;;5.90;1.40;;;;;;;16.64;53.05;98408.06;4974532;28;20027;-68
2023/03/10 05:40:40;;;;;;;5.80;1.55;;;;;;;16.54;52.74;98396.97;4942499;28;20027;-68
2023/03/10 05:43:05;;;;;;;4.78;0.95;;;;;;;16.56;52.61;98402.97;4974237;28;20535;-68
2023/03/10 05:45:30;;;;;;;5.05;1.00;;;;;;;16.60;53.19;98423.09;4942687;28;20059;-68
2023/03/10 05:47:56;;;;;;;5.03;0.70;;;;;;;16.59;53.57;98426.00;4974200;28;20031;-69
2023/03/10 05:50:21;;;;;;;4.75;1.15;;;;;;;16.57;53.16;98420.84;4941952;28;20430;-69
2023/03/10 05:52:46;;;;;;;6.00;0.80;;;;;;;16.45;52.89;98417.22;4973878;28;20533;-68
2023/03/10 05:55:17;;;;;;;9.07;0.70;;;;;;;16.52;52.79;98428.78;4975321;28;20038;-68
2023/03/10 05:57:43;;;;;;;6.05;0.70;;;;;;;16.46;53.06;98416.16;4974364;28;20055;-68
2023/03/10 06:00:09;;;;;;;1.58;0.28;;;;;;;16.47;53.30;98423.22;4957498;28;20039;-65
2023/03/10 06:02:37;;;;;;;4.40;0.60;;;;;;;16.34;53.61;98404.47;4957675;28;20035;-67
2023/03/10 06:05:04;;;;;;;3.13;0.60;;;;;;;16.37;52.66;98420.22;4973916;28;20502;-68
2023/03/10 06:07:29;;;;;;;4.95;1.00;;;;;;;16.35;54.49;98422.34;4974037;28;20407;-68
2023/03/10 06:09:54;;;;;;;4.25;0.93;;;;;;;16.31;54.61;98415.72;4974041;28;20035;-68
2023/03/10 06:12:20;;;;;;;3.72;0.90;;;;;;;16.24;54.18;98409.56;4973556;28;20097;-67
2023/03/10 06:14:45;;;;;;;1.05;0.40;;;;;;;16.25;54.23;98422.84;4973593;28;20031;-68
2023/03/10 06:17:11;;;;;;;6.07;1.30;;;;;;;16.14;53.53;98409.25;4956580;28;20031;-68
2023/03/10 06:19:36;;;;;;;5.32;1.05;;;;;;;16.08;54.04;98415.56;4974570;28;20039;-68
2023/03/10 06:22:01;;;;;;;9.25;1.20;;;;;;;16.12;53.26;98422.16;4941619;28;20109;-68
2023/03/10 06:24:28;;;;;;;2.17;0.98;;;;;;;16.04;54.12;98406.25;4974132;28;20038;-68
2023/03/10 06:26:53;;;;;;;6.85;0.95;;;;;;;16.07;54.35;98413.91;4973564;28;20069;-68
2023/03/10 06:29:18;;;;;;;4.93;0.95;;;;;;;15.99;54.37;98406.09;4957222;28;20055;-68
2023/03/10 06:31:44;;;;;;;3.70;0.80;;;;;;;16.04;53.87;98411.66;4957450;28;20081;-68
2023/03/10 06:34:09;;;;;;;2.10;0.57;;;;;;;15.96;54.88;98403.84;4957677;28;20066;-67
2023/03/10 06:36:36;;;;;;;3.15;0.52;;;;;;;16.04;53.29;98415.19;4958010;28;20044;-69
2023/03/10 06:39:02;;;;;;;2.63;1.00;;;;;;;16.04;53.81;98420.59;4957953;28;20031;-69
2023/03/10 06:41:27;;;;;;;9.60;1.02;;;;;;;16.08;54.69;98418.28;4958082;28;20410;-69
2023/03/10 06:43:53;;;;;;;4.40;0.50;;;;;;;16.10;54.37;98413.47;4973512;28;20039;-68
2023/03/10 06:46:19;;;;;;;4.60;1.25;;;;;;;16.11;53.94;98415.09;4957337;28;20038;-69
2023/03/10 06:48:44;;;;;;;7.72;1.00;;;;;;;16.05;53.85;98405.22;4973490;28;20038;-68
2023/03/10 06:51:13;;;;;;;5.82;0.82;;;;;;;16.20;54.20;98419.16;4972837;28;20035;-69
2023/03/10 06:53:38;;;;;;;4.82;0.88;;;;;;;16.26;53.51;98423.66;4955952;28;20073;-68
2023/03/10 06:56:06;;;;;;;3.22;1.00;;;;;;;16.22;53.32;98417.88;4940715;28;20051;-69
2023/03/10 06:58:34;;;;;;;5.15;1.02;;;;;;;16.34;53.96;98428.78;4972741;28;20026;-69
2023/03/10 07:01:00;;;;;;;5.60;0.90;;;;;;;16.38;52.56;98426.47;4957734;28;20030;-68
2023/03/10 07:03:27;;;;;;;5.68;0.90;;;;;;;16.42;53.55;98430.34;4958634;28;20062;-69
2023/03/10 07:05:59;;;;;;;7.47;0.90;;;;;;;16.46;53.72;98426.97;4971236;28;20043;-69
2023/03/10 07:08:26;;;;;;;3.22;0.40;;;;;;;16.53;52.81;98424.19;4965112;28;20035;-69
2023/03/10 07:10:51;;;;;;;1.52;0.68;;;;;;;16.58;52.25;98422.47;4953342;28;20031;-69
2023/03/10 07:13:17;;;;;;;3.50;0.82;;;;;;;16.62;53.59;98423.69;4955572;28;20042;-69
2023/03/10 07:15:44;;;;;;;5.30;0.80;;;;;;;16.66;53.46;98422.19;4972986;28;20483;-69
2023/03/10 07:18:09;;;;;;;5.28;1.00;;;;;;;16.60;52.59;98409.59;4956624;28;20161;-68
2023/03/10 07:20:36;;;;;;;6.55;0.70;;;;;;;16.64;52.29;98413.47;4956438;28;20129;-69
2023/03/10 07:23:01;;;;;;;10.13;0.77;;;;;;;16.78;52.45;98433.06;4956348;28;20035;-68
2023/03/10 07:25:26;;;;;;;5.25;0.52;;;;;;;16.83;51.99;98430.50;4972295;28;20038;-69
2023/03/10 07:27:52;;;;;;;4.68;0.80;;;;;;;16.87;51.97;98431.69;4956584;28;20054;-69
2023/03/10 07:30:17;;;;;;;4.43;1.13;;;;;;;16.84;52.32;98410.50;4971759;28;20034;-69
2023/03/10 07:32:43;;;;;;;5.15;1.30;;;;;;;17.00;52.73;98419.88;4956191;28;20058;-67
2023/03/10 07:35:09;;;;;;;2.95;1.05;;;;;;;17.08;51.95;98417.69;4956799;28;20525;-68
2023/03/10 07:37:39;;;;;;;3.10;1.13;;;;;;;17.06;52.32;98413.53;4972867;28;20080;-68
2023/03/10 07:40:08;;;;;;;5.32;0.82;;;;;;;17.16;51.82;98430.06;4972417;28;20150;-68
2023/03/10 07:42:33;;;;;;;6.80;2.05;;;;;;;17.19;52.04;98435.84;4972270;28;20502;-68
2023/03/10 07:44:59;;;;;;;11.70;1.48;;;;;;;17.23;52.07;98428.91;4972095;28;20054;-68
2023/03/10 07:47:24;;;;;;;6.25;1.05;;;;;;;17.30;53.03;98432.34;4973272;28;20041;-69
2023/03/10 07:49:49;;;;;;;3.13;0.85;;;;;;;17.34;51.92;98428.09;4955938;28;20275;-68
2023/03/10 07:52:15;;;;;;;3.63;0.98;;;;;;;17.41;52.01;98433.41;4955591;28;20031;-69
2023/03/10 07:54:43;;;;;;;3.38;1.55;;;;;;;17.52;51.69;98438.03;4937443;28;20031;-68
2023/03/10 07:57:09;;;;;;;5.35;1.25;;;;;;;17.58;51.72;98439.03;4969873;28;20094;-68
2023/03/10 07:59:34;;;;;;;4.78;0.88;;;;;;;17.59;52.01;98436.06;4971913;28;20031;-69
2023/03/10 08:02:00;;;;;;;3.40;0.98;;;;;;;17.69;52.36;98436.34;4939692;28;20039;-68
2023/03/10 08:04:25;;;;;;;6.15;1.02;;;;;;;17.85;51.29;98441.06;4955417;28;20027;-68
2023/03/10 08:06:50;;;;;;;8.60;1.23;;;;;;;18.06;51.05;98457.81;4956215;28;20039;-68
2023/03/10 08:09:16;;;;;;;6.00;1.40;;;;;;;18.09;51.20;98451.91;4971847;28;20043;-68
2023/03/10 08:11:41;;;;;;;3.58;1.45;;;;;;;18.18;51.07;98455.91;4971653;28;20026;-68
2023/03/10 08:14:07;;;;;;;5.70;1.48;;;;;;;18.15;51.58;98445.53;4955685;28;20026;-68
2023/03/10 08:16:32;;;;;;;6.82;1.38;;;;;;;18.26;51.11;98458.25;4971746;28;20038;-69
2023/03/10 08:18:57;;;;;;;10.30;1.33;;;;;;;18.39;51.39;98452.59;4940424;28;20153;-68
2023/03/10 08:21:23;;;;;;;4.75;1.10;;;;;;;18.57;50.67;98455.19;4971728;28;20503;-68
2023/03/10 08:23:48;;;;;;;6.80;1.48;;;;;;;18.90;50.19;98457.25;4939592;28;20073;-68
2023/03/10 08:26:16;;;;;;;7.03;1.80;;;;;;;18.90;49.83;98436.34;4936096;29;20563;-69
2023/03/10 08:28:41;;;;;;;6.78;1.25;;;;;;;19.11;49.89;98454.69;4973621;28;20507;-66
2023/03/10 08:31:10;;;;;;;7.22;1.83;;;;;;;19.17;50.38;98444.75;4971492;28;20085;-68
2023/03/10 08:33:36;;;;;;;6.85;1.38;;;;;;;19.26;50.55;98459.59;4972199;28;20030;-68
2023/03/10 08:36:13;;;;;;;10.10;1.33;;;;;;;19.37;50.15;98455.16;4955770;28;20040;-68
2023/03/10 08:38:38;;;;;;;7.40;1.48;;;;;;;19.42;49.94;98452.56;4955465;28;20034;-69
2023/03/10 08:41:15;;;;;;;4.40;0.93;;;;;;;19.47;49.58;98449.94;4972589;28;20035;-67
2023/03/10 08:43:41;;;;;;;3.47;1.20;;;;;;;19.45;50.08;98450.19;4955762;28;20059;-69
2023/03/10 08:46:07;;;;;;;6.78;1.00;;;;;;;19.42;49.48;98439.00;4940851;28;20039;-68
2023/03/10 08:48:33;;;;;;;3.97;0.98;;;;;;;19.51;49.70;98440.25;4959522;28;20052;-69
2023/03/10 08:50:58;;;;;;;8.50;1.30;;;;;;;19.60;49.04;98449.63;4976309;28;20502;-68
2023/03/10 08:53:24;;;;;;;10.73;1.67;;;;;;;19.76;48.31;98448.81;4942801;28;20047;-69
2023/03/10 08:55:49;;;;;;;7.47;0.98;;;;;;;20.12;48.47;98442.06;4991261;28;20534;-69
2023/03/10 08:58:15;;;;;;;2.63;1.27;;;;;;;20.29;47.80;98443.72;4974737;28;20094;-69
2023/03/10 09:00:41;;;;;;;6.53;1.23;;;;;;;20.52;48.52;98447.28;4975522;28;20085;-68
2023/03/10 09:03:07;;;;;;;8.18;2.05;;;;;;;20.76;47.61;98448.69;4991067;28;20031;-69
2023/03/10 09:05:32;;;;;;;8.02;1.40;;;;;;;20.88;47.65;98435.78;4991349;28;20045;-69
2023/03/10 09:07:58;;;;;;;5.72;1.35;;;;;;;21.37;46.51;98445.63;4976091;28;20035;-69
2023/03/10 09:10:24;;;;;;;9.32;1.60;;;;;;;21.38;47.25;98444.50;4974845;28;20394;-68
2023/03/10 09:12:49;;;;;;;10.95;1.05;;;;;;;21.25;47.20;98442.22;4991245;28;20023;-69
2023/03/10 09:15:15;;;;;;;6.55;0.90;;;;;;;21.07;47.11;98439.84;4974586;28;20038;-69
2023/03/10 09:17:40;;;;;;;7.38;1.42;;;;;;;20.90;47.47;98450.78;4974432;28;20054;-69
2023/03/10 09:20:06;;;;;;;4.63;1.10;;;;;;;20.71;47.88;98426.88;4974603;28;20035;-69
2023/03/10 09:22:31;;;;;;;7.75;1.10;;;;;;;20.63;47.44;98433.56;4974625;28;20065;-69
2023/03/10 09:24:57;;;;;;;8.23;1.45;;;;;;;20.49;47.66;98442.34;4974855;28;20039;-69
2023/03/10 09:27:22;;;;;;;4.88;0.88;;;;;;;20.36;47.82;98437.25;4974519;28;20510;-69
2023/03/10 09:29:48;;;;;;;5.18;0.95;;;;;;;20.23;48.04;98444.69;4990512;28;20573;-68
2023/03/10 09:32:13;;;;;;;6.60;2.20;;;;;;;20.17;47.65;98451.13;4974124;28;20117;-69
2023/03/10 09:34:39;;;;;;;5.13;0.80;;;;;;;20.13;48.17;98449.94;4990551;28;20035;-69
2023/03/10 09:37:05;;;;;;;4.68;1.20;;;;;;;20.10;47.40;98455.88;4974508;28;20035;-68
2023/03/10 09:39:30;;;;;;;5.03;1.08;;;;;;;19.99;47.22;98454.06;4976666;28;20030;-68
2023/03/10 09:42:24;;;;;;;4.95;1.02;;;;;;;19.90;47.86;98455.59;4974050;28;20067;-68
2023/03/10 09:45:16;;;;;;;5.38;1.00;;;;;;;19.83;47.85;98449.47;4974124;28;20035;-69
2023/03/10 09:48:18;;;;;;;4.60;0.90;;;;;;;19.71;48.06;98454.16;4975419;28;20062;-69
2023/03/10 09:50:51;;;;;;;5.90;1.15;;;;;;;19.60;47.53;98460.47;4974028;28;20031;-69
2023/03/10 09:53:35;;;;;;;5.22;0.88;;;;;;;19.59;47.74;98448.81;4989789;28;20047;-69
2023/03/10 09:56:03;;;;;;;3.70;0.57;;;;;;;19.65;47.64;98441.59;4990204;28;20038;-69
2023/03/10 09:58:50;;;;;;;5.60;1.02;;;;;;;19.57;47.64;98450.13;4973911;28;20086;-69
2023/03/10 10:01:18;;;;;;;11.57;1.35;;;;;;;19.42;48.08;98430.84;4957887;28;20073;-69
2023/03/10 10:03:47;;;;;;;4.18;1.10;;;;;;;19.37;47.50;98453.28;4958358;28;20019;-68
2023/03/10 10:06:17;;;;;;;4.82;1.30;;;;;;;19.16;47.59;98443.91;4973854;28;20031;-69
2023/03/10 10:08:52;;;;;;;6.18;2.22;;;;;;;19.02;47.96;98442.56;4974184;28;20562;-69
2023/03/10 10:11:17;;;;;;;4.38;1.23;;;;;;;18.92;48.26;98447.81;4973907;28;20039;-69
2023/03/10 10:13:43;;;;;;;3.00;0.90;;;;;;;18.79;48.46;98453.47;4973573;28;20521;-68
2023/03/10 10:16:28;;;;;;;5.15;1.20;;;;;;;18.63;48.68;98470.50;4973784;28;20038;-68
2023/03/10 10:19:13;;;;;;;9.32;1.17;;;;;;;18.40;48.65;98474.03;4990088;28;20486;-68
2023/03/10 10:22:00;;;;;;;9.35;1.05;;;;;;;18.20;49.45;98470.06;4989958;28;20050;-68
2023/03/10 10:24:26;;;;;;;3.75;1.27;;;;;;;18.01;48.93;98481.00;4957873;28;20050;-68
2023/03/10 10:26:51;;;;;;;8.35;1.02;;;;;;;17.82;49.60;98479.44;4957547;28;20466;-68
2023/03/10 10:29:23;;;;;;;4.63;0.80;;;;;;;17.70;49.12;98475.88;4957610;28;20031;-67
2023/03/10 10:32:09;;;;;;;4.07;0.90;;;;;;;17.56;50.59;98485.25;4989498;28;20038;-66
2023/03/10 10:34:36;;;;;;;2.65;0.70;;;;;;;17.44;50.05;98485.22;4973325;28;20031;-65
2023/03/10 10:37:02;;;;;;;3.42;0.93;;;;;;;17.31;50.60;98476.44;4957483;28;20030;-66
2023/03/10 10:39:31;;;;;;;6.28;0.90;;;;;;;17.22;50.82;98484.09;4974158;28;20035;-66
2023/03/10 10:42:23;;;;;;;4.32;0.50;;;;;;;17.14;50.28;98483.56;4973489;28;20065;-66
2023/03/10 10:44:52;;;;;;;2.97;0.43;;;;;;;17.05;50.43;98487.63;4975320;28;20070;-65
2023/03/10 10:47:24;;;;;;;5.95;1.25;;;;;;;17.00;50.74;98473.97;4974798;28;20033;-66
2023/03/10 10:49:49;;;;;;;10.23;1.67;;;;;;;17.01;50.66;98475.63;4974834;28;20439;-67
2023/03/10 10:52:23;;;;;;;0.75;0.68;;;;;;;17.02;50.63;98472.69;4973026;28;20126;-68
2023/03/10 10:54:55;;;;;;;3.63;0.75;;;;;;;17.07;51.27;98466.59;4954285;28;20038;-68
2023/03/10 10:57:23;;;;;;;3.28;1.13;;;;;;;17.14;50.58;98470.03;4938002;29;20118;-69
2023/03/10 10:59:48;;;;;;;1.35;0.88;;;;;;;17.12;50.33;98455.91;4953698;28;20043;-68
2023/03/10 11:02:29;;;;;;;3.55;0.85;;;;;;;17.17;50.70;98458.78;4969770;28;20027;-68
2023/03/10 11:05:06;;;;;;;2.47;0.65;;;;;;;17.21;50.96;98454.53;4953838;28;20035;-66
2023/03/10 11:07:31;;;;;;;1.48;0.60;;;;;;;17.17;51.03;98432.50;4969513;28;20402;-67
2023/03/10 11:09:57;;;;;;;1.42;0.80;;;;;;;17.27;50.69;98448.19;4937795;29;20027;-66
2023/03/10 11:12:29;;;;;;;1.83;0.50;;;;;;;17.26;51.49;98450.06;4954547;28;20036;-67
2023/03/10 11:15:24;;;;;;;1.15;0.43;;;;;;;17.30;51.01;98447.75;4969325;28;20178;-65
2023/03/10 11:18:14;;;;;;;2.38;0.52;;;;;;;17.39;51.25;98449.88;4934398;28;20094;-69
2023/03/10 11:20:47;;;;;;;2.17;0.70;;;;;;;17.44;50.28;98449.19;4918297;29;20071;-68
2023/03/10 11:23:23;;;;;;;1.40;0.55;;;;;;;17.43;50.47;98461.06;4928171;29;20035;-68
2023/03/10 11:26:02;;;;;;;1.65;0.47;;;;;;;17.38;50.90;98452.81;4941171;29;20058;-68
2023/03/10 11:28:52;;;;;;;0.88;0.40;;;;;;;17.37;51.22;98449.28;4974241;28;20050;-69
2023/03/10 11:31:36;;;;;;;2.65;0.47;;;;;;;17.47;51.55;98470.41;4942810;28;20039;-69
2023/03/10 11:34:08;;;;;;;2.97;0.43;;;;;;;17.43;51.94;98455.66;4955201;28;20021;-69
2023/03/10 11:36:51;;;;;;;3.90;0.50;;;;;;;17.42;50.91;98454.00;4955391;29;20027;-70